createdAt,value
2023-05-12T00:00:16.619Z,98396.97
2023-05-12T00:02:46.302Z,98405.25
2023-05-12T00:05:13.827Z,98402.28
2023-05-12T00:07:41.248Z,98394.19
2023-05-12T00:10:09.014Z,98398.81
2023-05-12T00:12:36.552Z,98386.69
2023-05-12T00:15:04.270Z,98391.03
2023-05-12T00:17:32.750Z,98389.03
2023-05-12T00:20:00.280Z,98387.91
2023-05-12T00:22:27.907Z,98397.50
2023-05-12T00:24:55.393Z,98392.03
2023-05-12T00:27:23.032Z,98383.56
2023-05-12T00:29:50.528Z,98385.91
2023-05-12T00:32:18.085Z,98392.53
2023-05-12T00:34:45.525Z,98394.03
2023-05-12T00:37:13.202Z,98396.72
2023-05-12T00:39:40.614Z,98392.44
2023-05-12T00:42:08.438Z,98398.63
2023-05-12T00:44:36.965Z,98394.03
2023-05-12T00:47:05.357Z,98391.59
2023-05-12T00:49:33.186Z,98392.38
2023-05-12T00:52:02.521Z,98394.03
2023-05-12T00:54:31.381Z,98399.34
2023-05-12T00:56:59.364Z,98399.25
2023-05-12T00:59:27.469Z,98397.69
2023-05-12T01:01:54.998Z,98398.03
2023-05-12T01:04:23.597Z,98400.63
2023-05-12T01:07:07.049Z,98404.56
2023-05-12T01:09:34.624Z,98398.13
2023-05-12T01:12:02.864Z,98408.38
2023-05-12T01:14:32.465Z,98393.19
2023-05-12T01:17:03.826Z,98401.34
2023-05-12T01:19:46.220Z,98409.84
2023-05-12T01:22:15.529Z,98400.91
2023-05-12T01:25:08.738Z,98399.88
2023-05-12T01:27:40.136Z,98411.78
2023-05-12T01:30:09.760Z,98419.69
2023-05-12T01:32:39.065Z,98411.13
2023-05-12T01:35:07.512Z,98396.72
2023-05-12T01:37:37.303Z,98419.38
2023-05-12T01:40:06.613Z,98409.00
2023-05-12T01:42:34.240Z,98408.16
2023-05-12T01:45:02.072Z,98419.06
2023-05-12T01:47:30.580Z,98420.19
2023-05-12T01:50:09.447Z,98418.03
2023-05-12T01:52:42.546Z,98416.13
2023-05-12T01:55:13.146Z,98411.28
2023-05-12T01:58:00.900Z,98413.97
2023-05-12T02:00:28.824Z,98416.31
2023-05-12T02:02:58.703Z,98416.66
2023-05-12T02:05:26.660Z,98417.56
2023-05-12T02:07:54.625Z,98418.22
2023-05-12T02:10:22.737Z,98406.50
2023-05-12T02:12:50.488Z,98403.66
2023-05-12T02:15:18.316Z,98409.94
2023-05-12T02:17:47.261Z,98408.09
2023-05-12T02:20:17.113Z,98405.94
2023-05-12T02:22:44.753Z,98402.75
2023-05-12T02:25:12.270Z,98402.50
2023-05-12T02:27:40.315Z,98403.97
2023-05-12T02:30:09.562Z,98400.72
2023-05-12T02:32:37.300Z,98397.53
2023-05-12T02:35:07.813Z,98405.97
2023-05-12T02:37:37.128Z,98396.88
2023-05-12T02:40:06.321Z,98400.88
2023-05-12T02:42:36.510Z,98408.09
2023-05-12T02:45:05.837Z,98402.84
2023-05-12T02:47:34.809Z,98399.69
2023-05-12T02:50:02.749Z,98407.50
2023-05-12T02:52:32.187Z,98418.47
2023-05-12T02:54:59.884Z,98419.00
2023-05-12T02:57:33.168Z,98408.03
2023-05-12T03:00:07.541Z,98414.88
2023-05-12T03:02:39.439Z,98411.19
2023-05-12T03:05:09.490Z,98409.59
2023-05-12T03:07:37.703Z,98410.25
2023-05-12T03:10:05.788Z,98411.31
2023-05-12T03:12:33.254Z,98406.34
2023-05-12T03:15:00.866Z,98412.22
2023-05-12T03:17:29.620Z,98417.88
2023-05-12T03:19:57.210Z,98415.38
2023-05-12T03:22:24.778Z,98412.81
2023-05-12T03:24:52.440Z,98412.09
2023-05-12T03:27:21.266Z,98409.00
2023-05-12T03:29:49.036Z,98415.63
2023-05-12T03:32:17.061Z,98413.63
2023-05-12T03:34:44.654Z,98423.69
2023-05-12T03:37:12.870Z,98410.72
2023-05-12T03:39:40.462Z,98410.91
2023-05-12T03:42:08.284Z,98412.22
2023-05-12T03:44:35.852Z,98412.28
2023-05-12T03:47:03.363Z,98393.50
2023-05-12T03:49:30.979Z,98400.84
2023-05-12T03:51:58.819Z,98397.63
2023-05-12T03:54:26.318Z,98410.00
2023-05-12T03:56:54.302Z,98414.53
2023-05-12T03:59:22.798Z,98403.09
2023-05-12T04:01:53.728Z,98411.44
2023-05-12T04:04:21.217Z,98403.19
2023-05-12T04:06:48.794Z,98401.34
2023-05-12T04:09:16.911Z,98395.88
2023-05-12T04:11:44.400Z,98402.38
2023-05-12T04:14:11.791Z,98395.19
2023-05-12T04:16:40.995Z,98391.13
2023-05-12T04:19:08.448Z,98391.91
2023-05-12T04:21:36.352Z,98387.84
2023-05-12T04:24:04.110Z,98388.09
2023-05-12T04:26:34.362Z,98389.84
2023-05-12T04:29:01.860Z,98381.41
2023-05-12T04:31:29.435Z,98375.91
2023-05-12T04:33:58.179Z,98390.69
2023-05-12T04:36:26.357Z,98386.25
2023-05-12T04:38:56.063Z,98384.31
2023-05-12T04:41:23.560Z,98396.09
2023-05-12T04:46:22.400Z,98390.81
2023-05-12T04:48:50.021Z,98375.75
2023-05-12T04:51:18.820Z,98384.41
2023-05-12T04:53:46.275Z,98383.13
2023-05-12T04:56:14.939Z,98375.56
2023-05-12T04:58:43.134Z,98377.53
2023-05-12T05:01:12.583Z,98356.78
2023-05-12T05:03:41.157Z,98375.25
2023-05-12T05:06:08.888Z,98359.66
2023-05-12T05:08:36.287Z,98367.06
2023-05-12T05:11:04.715Z,98375.16
2023-05-12T05:13:32.699Z,98358.09
2023-05-12T05:16:00.320Z,98391.94
2023-05-12T05:18:29.497Z,98361.63
2023-05-12T05:20:59.092Z,98338.72
2023-05-12T05:23:27.470Z,98356.16
2023-05-12T05:25:55.612Z,98356.84
2023-05-12T05:28:23.863Z,98360.69
2023-05-12T05:30:51.441Z,98329.78
2023-05-12T05:33:19.010Z,98341.38
2023-05-12T05:35:48.251Z,98353.22
2023-05-12T05:38:15.871Z,98334.78
2023-05-12T05:40:53.066Z,98337.56
2023-05-12T05:43:22.203Z,98344.22
2023-05-12T05:45:50.283Z,98330.81
2023-05-12T05:48:19.892Z,98333.09
2023-05-12T05:50:47.998Z,98324.78
2023-05-12T05:53:15.651Z,98303.94
2023-05-12T05:55:43.586Z,98320.91
2023-05-12T05:58:11.957Z,98309.06
2023-05-12T06:00:39.620Z,98307.25
2023-05-12T06:03:07.722Z,98298.31
2023-05-12T06:05:35.733Z,98304.19
2023-05-12T06:08:03.372Z,98307.66
2023-05-12T06:10:32.507Z,98296.28
2023-05-12T06:13:00.004Z,98303.09
2023-05-12T06:15:27.476Z,98296.00
2023-05-12T06:17:55.127Z,98300.16
2023-05-12T06:20:23.634Z,98308.94
2023-05-12T06:22:51.224Z,98287.69
2023-05-12T06:25:18.974Z,98296.91
2023-05-12T06:27:46.687Z,98299.53
2023-05-12T06:30:16.169Z,98290.00
2023-05-12T06:32:44.028Z,98269.09
2023-05-12T06:35:11.982Z,98272.75
2023-05-12T06:37:39.532Z,98271.69
2023-05-12T06:40:07.792Z,98278.31
2023-05-12T06:42:35.279Z,98276.94
2023-05-12T06:45:10.091Z,98278.31
2023-05-12T06:47:37.555Z,98265.09
2023-05-12T06:50:05.469Z,98269.72
2023-05-12T06:52:33.042Z,98250.16
2023-05-12T06:55:00.457Z,98255.66
2023-05-12T06:57:28.094Z,98248.25
2023-05-12T06:59:55.584Z,98248.22
2023-05-12T07:02:23.035Z,98249.75
2023-05-12T07:04:50.674Z,98244.28
2023-05-12T07:07:18.115Z,98232.13
2023-05-12T07:09:46.316Z,98232.56
2023-05-12T07:12:13.865Z,98228.25
2023-05-12T07:14:41.548Z,98225.06
2023-05-12T07:17:09.090Z,98227.78
2023-05-12T07:19:36.875Z,98211.13
2023-05-12T07:22:04.817Z,98220.22
2023-05-12T07:24:32.415Z,98233.72
2023-05-12T07:26:59.861Z,98234.00
2023-05-12T07:29:27.367Z,98215.38
2023-05-12T07:31:54.929Z,98223.41
2023-05-12T07:34:22.504Z,98205.34
2023-05-12T07:36:49.928Z,98198.00
2023-05-12T07:39:19.726Z,98184.59
2023-05-12T07:41:47.152Z,98202.50
2023-05-12T07:44:14.643Z,98199.22
2023-05-12T07:46:42.301Z,98192.28
2023-05-12T07:49:09.817Z,98195.91
2023-05-12T07:51:37.705Z,98180.72
2023-05-12T07:54:05.360Z,98177.75
2023-05-12T07:56:33.239Z,98167.22
2023-05-12T07:59:00.617Z,98156.09
2023-05-12T08:01:28.141Z,98178.72
2023-05-12T08:03:55.861Z,98164.50
2023-05-12T08:06:24.931Z,98179.00
2023-05-12T08:08:52.796Z,98147.47
2023-05-12T08:11:20.335Z,98157.56
2023-05-12T08:13:47.789Z,98145.19
2023-05-12T08:16:15.249Z,98136.38
2023-05-12T08:18:42.784Z,98136.34
2023-05-12T08:21:10.524Z,98137.34
2023-05-12T08:23:38.211Z,98140.56
2023-05-12T08:26:06.149Z,98164.06
2023-05-12T08:28:33.661Z,98157.72
2023-05-12T08:31:03.366Z,98123.63
2023-05-12T08:33:32.259Z,98124.59
2023-05-12T08:35:59.861Z,98147.41
2023-05-12T08:38:27.424Z,98136.59
2023-05-12T08:41:16.533Z,98132.16
2023-05-12T08:43:51.192Z,98116.44
2023-05-12T08:46:19.204Z,98121.59
2023-05-12T08:48:49.298Z,98112.66
2023-05-12T08:51:19.636Z,98113.09
2023-05-12T08:53:49.452Z,98119.22
2023-05-12T08:58:50.486Z,98111.84
2023-05-12T09:01:18.598Z,98111.41
2023-05-12T09:03:46.961Z,98101.09
2023-05-12T09:06:14.998Z,98112.00
2023-05-12T09:08:42.728Z,98111.00
2023-05-12T09:11:13.720Z,98118.31
2023-05-12T09:14:08.959Z,98110.09
2023-05-12T09:16:43.112Z,98111.09
2023-05-12T09:19:12.836Z,98098.59
2023-05-12T09:21:42.273Z,98091.63
2023-05-12T09:24:09.782Z,98108.03
2023-05-12T09:26:51.816Z,98085.06
2023-05-12T09:29:30.800Z,98083.38
2023-05-12T09:32:03.508Z,98092.50
2023-05-12T09:34:38.811Z,98089.09
2023-05-12T09:37:08.096Z,98085.22
2023-05-12T09:39:37.022Z,98067.81
2023-05-12T09:42:05.379Z,98098.88
2023-05-12T09:44:33.607Z,98083.50
2023-05-12T09:47:08.255Z,98072.75
2023-05-12T09:49:36.062Z,98063.75
2023-05-12T09:52:05.324Z,98070.47
2023-05-12T09:54:34.127Z,98061.53
2023-05-12T09:57:05.276Z,98055.84
2023-05-12T09:59:35.168Z,98057.97
2023-05-12T10:02:06.729Z,98051.41
2023-05-12T10:04:49.786Z,98081.19
2023-05-12T10:07:22.848Z,98067.44
2023-05-12T10:09:50.695Z,98049.13
2023-05-12T10:12:18.399Z,98051.94
2023-05-12T10:14:46.785Z,98049.69
2023-05-12T10:17:15.501Z,98055.22
2023-05-12T10:19:44.553Z,98036.91
2023-05-12T10:22:12.177Z,98022.69
2023-05-12T10:24:41.354Z,98042.69
2023-05-12T10:27:09.066Z,98037.88
2023-05-12T10:29:38.664Z,98023.38
2023-05-12T10:32:07.324Z,98015.91
2023-05-12T10:34:37.109Z,98009.56
2023-05-12T10:37:11.411Z,98005.19
2023-05-12T10:39:48.274Z,98007.69
2023-05-12T10:42:26.657Z,98008.56
2023-05-12T10:44:55.339Z,98020.69
2023-05-12T10:47:29.763Z,97990.47
2023-05-12T10:49:59.022Z,97978.13
2023-05-12T10:52:26.493Z,97996.13
2023-05-12T10:55:01.489Z,98003.56
2023-05-12T10:57:32.335Z,97974.88
2023-05-12T11:00:01.963Z,97983.75
2023-05-12T11:02:34.660Z,97979.06
2023-05-12T11:05:10.772Z,97973.75
2023-05-12T11:07:39.879Z,97962.25
2023-05-12T11:10:08.610Z,97967.75
2023-05-12T11:12:37.615Z,97960.78
2023-05-12T11:15:07.353Z,97985.31
2023-05-12T11:17:40.421Z,97989.78
2023-05-12T11:20:10.303Z,97989.56
2023-05-12T11:22:37.859Z,97961.97
2023-05-12T11:25:12.720Z,97978.38
2023-05-12T11:27:46.041Z,97975.78
2023-05-12T11:30:13.952Z,98031.78
2023-05-12T11:32:41.840Z,97991.25
2023-05-12T11:35:10.117Z,97971.75
2023-05-12T11:37:42.156Z,97974.81
2023-05-12T11:40:27.622Z,97993.84
2023-05-12T11:42:56.437Z,97963.28
2023-05-12T11:45:29.071Z,97969.38
2023-05-12T11:48:09.128Z,97978.72
2023-05-12T11:50:44.848Z,97959.44
2023-05-12T11:53:15.298Z,97959.03
2023-05-12T11:55:51.441Z,97966.38
2023-05-12T11:58:22.083Z,97952.53
2023-05-12T12:00:50.956Z,97945.28
2023-05-12T12:03:19.047Z,97971.47
2023-05-12T12:06:01.570Z,97975.28
2023-05-12T12:08:29.355Z,97969.81
2023-05-12T12:10:57.061Z,97947.22
2023-05-12T12:13:26.393Z,97954.72
2023-05-12T12:15:53.962Z,97948.69
2023-05-12T12:18:21.740Z,97957.81
2023-05-12T12:20:49.379Z,97948.13
2023-05-12T12:23:16.943Z,97957.19
2023-05-12T12:25:44.596Z,97958.88
2023-05-12T12:28:12.494Z,97935.13
2023-05-12T12:30:40.017Z,97935.94
2023-05-12T12:33:07.599Z,97933.44
2023-05-12T12:35:35.211Z,97909.19
2023-05-12T12:38:02.787Z,97925.16
2023-05-12T12:40:31.259Z,97924.91
2023-05-12T12:42:58.719Z,97921.91
2023-05-12T12:45:26.708Z,97919.94
2023-05-12T12:47:55.234Z,97913.38
2023-05-12T12:50:24.995Z,97899.22
2023-05-12T12:52:53.305Z,97908.72
2023-05-12T12:55:21.129Z,97899.75
2023-05-12T12:57:48.850Z,97899.34
2023-05-12T13:00:17.628Z,97901.34
2023-05-12T13:02:45.627Z,97901.38
2023-05-12T13:05:13.061Z,97886.56
2023-05-12T13:07:40.744Z,97890.81
2023-05-12T13:10:09.840Z,97879.03
2023-05-12T13:12:37.454Z,97877.44
2023-05-12T13:15:06.047Z,97882.13
2023-05-12T13:17:34.677Z,97880.59
2023-05-12T13:20:02.852Z,97870.50
2023-05-12T13:22:31.512Z,97875.84
2023-05-12T13:24:58.982Z,97862.50
2023-05-12T13:27:26.492Z,97862.09
2023-05-12T13:29:54.080Z,97868.44
2023-05-12T13:32:21.545Z,97869.00
2023-05-12T13:34:49.220Z,97863.91
2023-05-12T13:37:16.856Z,97872.53
2023-05-12T13:39:44.342Z,97870.59
2023-05-12T13:42:11.835Z,97865.94
2023-05-12T13:44:39.252Z,97855.78
2023-05-12T13:47:09.758Z,97846.44
2023-05-12T13:49:37.633Z,97848.00
2023-05-12T13:52:05.391Z,97849.22
2023-05-12T13:54:32.859Z,97851.50
2023-05-12T13:57:01.146Z,97841.38
2023-05-12T13:59:28.658Z,97859.09
2023-05-12T14:01:56.190Z,97855.66
2023-05-12T14:04:23.870Z,97850.19
2023-05-12T14:06:54.267Z,97840.59
2023-05-12T14:09:22.053Z,97838.63
2023-05-12T14:11:49.513Z,97832.75
2023-05-12T14:14:17.059Z,97843.38
2023-05-12T14:16:44.647Z,97836.44
2023-05-12T14:19:12.524Z,97839.59
2023-05-12T14:21:41.511Z,97834.13
2023-05-12T14:24:09.365Z,97835.22
2023-05-12T14:26:36.966Z,97824.72
2023-05-12T14:29:05.582Z,97828.94
2023-05-12T14:31:34.405Z,97828.19
2023-05-12T14:34:03.039Z,97795.63
2023-05-12T14:36:30.513Z,97828.19
2023-05-12T14:38:58.068Z,97827.09
2023-05-12T14:41:26.109Z,97818.22
2023-05-12T14:43:53.643Z,97821.38
2023-05-12T14:46:21.365Z,97817.78
2023-05-12T14:48:49.122Z,97816.72
2023-05-12T14:51:16.611Z,97810.53
2023-05-12T14:53:44.193Z,97814.78
2023-05-12T14:56:11.615Z,97808.53
2023-05-12T14:58:39.252Z,97810.84
2023-05-12T15:01:09.281Z,97812.09
2023-05-12T15:03:37.266Z,97812.84
2023-05-12T15:06:08.063Z,97812.09
2023-05-12T15:08:36.101Z,97807.06
2023-05-12T15:11:03.723Z,97804.78
2023-05-12T15:13:31.875Z,97809.84
2023-05-12T15:15:59.390Z,97801.78
2023-05-12T15:18:27.050Z,97809.59
2023-05-12T15:20:54.647Z,97800.69
2023-05-12T15:23:22.396Z,97807.72
2023-05-12T15:25:49.901Z,97801.50
2023-05-12T15:28:17.700Z,97796.84
2023-05-12T15:30:45.807Z,97799.66
2023-05-12T15:33:13.677Z,97796.91
2023-05-12T15:35:41.996Z,97799.66
2023-05-12T15:38:09.528Z,97787.63
2023-05-12T15:40:37.517Z,97800.41
2023-05-12T15:43:05.459Z,97797.69
2023-05-12T15:45:33.022Z,97792.28
2023-05-12T15:48:00.556Z,97794.59
2023-05-12T15:50:28.111Z,97792.31
2023-05-12T15:52:56.086Z,97786.88
2023-05-12T15:55:24.059Z,97789.59
2023-05-12T15:57:53.814Z,97786.50
2023-05-12T16:00:22.931Z,97789.22
2023-05-12T16:02:50.679Z,97790.81
2023-05-12T16:05:18.625Z,97795.09
2023-05-12T16:07:48.243Z,97795.13
2023-05-12T16:10:16.289Z,97777.66
2023-05-12T16:12:46.203Z,97787.72
2023-05-12T16:15:14.143Z,97790.09
2023-05-12T16:17:41.745Z,97775.31
2023-05-12T16:20:10.547Z,97783.50
2023-05-12T16:22:38.126Z,97782.72
2023-05-12T16:25:05.971Z,97790.13
2023-05-12T16:27:35.836Z,97777.69
2023-05-12T16:30:04.254Z,97791.28
2023-05-12T16:32:32.461Z,97764.91
2023-05-12T16:35:01.039Z,97777.72
2023-05-12T16:37:28.937Z,97772.28
2023-05-12T16:39:56.443Z,97780.44
2023-05-12T16:42:24.202Z,97777.75
2023-05-12T16:44:55.068Z,97778.53
2023-05-12T16:47:23.067Z,97781.63
2023-05-12T16:49:53.894Z,97775.41
2023-05-12T16:52:21.723Z,97773.06
2023-05-12T16:54:49.248Z,97776.19
2023-05-12T16:57:18.591Z,97776.94
2023-05-12T16:59:46.286Z,97775.78
2023-05-12T17:02:13.835Z,97764.56
2023-05-12T17:04:41.832Z,97772.69
2023-05-12T17:07:09.986Z,97766.88
2023-05-12T17:09:37.474Z,97769.19
2023-05-12T17:12:06.966Z,97763.00
2023-05-12T17:14:37.510Z,97772.31
2023-05-12T17:17:05.162Z,97763.00
2023-05-12T17:19:33.395Z,97763.75
2023-05-12T17:22:01.575Z,97763.34
2023-05-12T17:24:29.133Z,97759.47
2023-05-12T17:26:56.569Z,97758.31
2023-05-12T17:29:24.106Z,97755.97
2023-05-12T17:31:51.693Z,97753.66
2023-05-12T17:34:19.360Z,97749.00
2023-05-12T17:36:46.821Z,97748.22
2023-05-12T17:39:16.256Z,97746.66
2023-05-12T17:41:44.609Z,97743.16
2023-05-12T17:44:12.093Z,97738.91
2023-05-12T17:46:39.633Z,97738.13
2023-05-12T17:49:07.351Z,97737.75
2023-05-12T17:51:35.704Z,97730.75
2023-05-12T17:54:04.297Z,97724.94
2023-05-12T17:56:31.824Z,97723.78
2023-05-12T17:58:59.303Z,97721.84
2023-05-12T18:01:26.910Z,97713.34
2023-05-12T18:03:54.810Z,97712.94
2023-05-12T18:06:22.422Z,97717.97
2023-05-12T18:08:50.030Z,97710.63
2023-05-12T18:11:17.496Z,97709.81
2023-05-12T18:13:44.923Z,97704.78
2023-05-12T18:16:25.028Z,97704.78
2023-05-12T18:18:55.954Z,97703.28
2023-05-12T18:21:23.484Z,97703.19
2023-05-12T18:23:50.945Z,97701.25
2023-05-12T18:26:18.449Z,97697.69
2023-05-12T18:28:45.932Z,97693.44
2023-05-12T18:31:16.295Z,97690.69
2023-05-12T18:33:47.704Z,97690.34
2023-05-12T18:36:16.758Z,97688.38
2023-05-12T18:38:44.911Z,97683.75
2023-05-12T18:41:12.669Z,97678.31
2023-05-12T18:43:40.209Z,97686.44
2023-05-12T18:46:07.873Z,97677.53
2023-05-12T18:48:35.431Z,97684.50
2023-05-12T18:51:03.177Z,97678.66
2023-05-12T18:53:30.860Z,97673.28
2023-05-12T18:55:58.473Z,97678.31
2023-05-12T18:58:26.057Z,97671.72
2023-05-12T19:00:54.247Z,97679.81
2023-05-12T19:03:22.190Z,97669.75
2023-05-12T19:05:49.838Z,97663.94
2023-05-12T19:08:19.352Z,97676.28
2023-05-12T19:10:48.279Z,97675.91
2023-05-12T19:13:15.827Z,97665.06
2023-05-12T19:15:43.321Z,97667.78
2023-05-12T19:18:10.982Z,97672.03
2023-05-12T19:20:38.633Z,97667.34
2023-05-12T19:23:06.184Z,97666.97
2023-05-12T19:25:33.824Z,97666.22
2023-05-12T19:28:01.677Z,97669.66
2023-05-12T19:30:29.652Z,97673.91
2023-05-12T19:32:57.608Z,97666.13
2023-05-12T19:35:25.906Z,97659.97
2023-05-12T19:37:53.408Z,97658.03
2023-05-12T19:40:21.079Z,97658.41
2023-05-12T19:42:48.662Z,97654.91
2023-05-12T19:45:16.320Z,97647.94
2023-05-12T19:47:43.844Z,97651.00
2023-05-12T19:50:11.668Z,97652.53
2023-05-12T19:52:39.535Z,97652.53
2023-05-12T19:55:10.151Z,97655.31
2023-05-12T19:57:38.497Z,97652.56
2023-05-12T20:00:06.689Z,97660.34
2023-05-12T20:02:39.831Z,97653.13
2023-05-12T20:05:07.868Z,97643.31
2023-05-12T20:07:35.381Z,97651.06
2023-05-12T20:10:03.429Z,97652.63
2023-05-12T20:12:31.890Z,97646.41
2023-05-12T20:14:59.409Z,97642.19
2023-05-12T20:17:27.051Z,97632.06
2023-05-12T20:19:54.714Z,97645.59
2023-05-12T20:22:22.587Z,97635.91
2023-05-12T20:24:50.922Z,97638.25
2023-05-12T20:27:18.370Z,97630.91
2023-05-12T20:29:45.973Z,97627.06
2023-05-12T20:32:14.464Z,97624.75
2023-05-12T20:34:42.462Z,97624.78
2023-05-12T20:37:10.370Z,97617.47
2023-05-12T20:39:37.781Z,97615.53
2023-05-12T20:42:06.396Z,97617.50
2023-05-12T20:44:33.907Z,97611.31
2023-05-12T20:47:02.000Z,97613.28
2023-05-12T20:49:29.768Z,97612.53
2023-05-12T20:51:57.204Z,97608.28
2023-05-12T20:54:24.713Z,97604.44
2023-05-12T20:56:52.272Z,97609.09
2023-05-12T20:59:20.321Z,97607.53
2023-05-12T21:01:48.009Z,97606.41
2023-05-12T21:04:15.635Z,97611.03
2023-05-12T21:06:43.298Z,97618.03
2023-05-12T21:09:10.780Z,97613.78
2023-05-12T21:11:38.338Z,97609.50
2023-05-12T21:14:05.919Z,97599.44
2023-05-12T21:16:33.683Z,97607.94
2023-05-12T21:19:01.153Z,97603.28
2023-05-12T21:21:28.984Z,97603.28
2023-05-12T21:23:56.523Z,97599.81
2023-05-12T21:26:24.185Z,97597.47
2023-05-12T21:28:51.787Z,97591.66
2023-05-12T21:31:19.280Z,97585.06
2023-05-12T21:33:47.998Z,97590.09
2023-05-12T21:36:16.323Z,97585.44
2023-05-12T21:38:43.826Z,97588.91
2023-05-12T21:41:11.425Z,97588.56
2023-05-12T21:43:38.941Z,97591.66
2023-05-12T21:46:06.539Z,97587.78
2023-05-12T21:48:34.119Z,97587.78
2023-05-12T21:51:03.327Z,97597.09
2023-05-12T21:53:30.935Z,97585.09
2023-05-12T21:55:58.516Z,97586.25
2023-05-12T21:58:26.403Z,97586.63
2023-05-12T22:00:54.229Z,97577.34
2023-05-12T22:03:22.276Z,97583.91
2023-05-12T22:05:50.251Z,97586.25
2023-05-12T22:08:17.909Z,97577.34
2023-05-12T22:10:45.480Z,97576.94
2023-05-12T22:13:13.054Z,97575.78
2023-05-12T22:15:40.868Z,97573.06
2023-05-12T22:18:08.348Z,97571.91
2023-05-12T22:20:35.996Z,97569.97
2023-05-12T22:23:03.962Z,97571.50
2023-05-12T22:25:31.580Z,97559.91
2023-05-12T22:27:59.115Z,97565.69
2023-05-12T22:30:26.709Z,97556.41
2023-05-12T22:32:54.245Z,97562.22
2023-05-12T22:35:21.834Z,97557.56
2023-05-12T22:37:52.478Z,97556.00
2023-05-12T22:40:23.381Z,97548.25
2023-05-12T22:42:51.121Z,97554.47
2023-05-12T22:45:18.850Z,97553.66
2023-05-12T22:47:46.518Z,97549.78
2023-05-12T22:50:14.007Z,97550.56
2023-05-12T22:52:41.500Z,97551.72
2023-05-12T22:55:09.767Z,97540.88
2023-05-12T22:57:38.918Z,97549.38
2023-05-12T23:00:08.452Z,97543.16
2023-05-12T23:02:37.175Z,97548.59
2023-05-12T23:05:05.041Z,97544.72
2023-05-12T23:07:32.501Z,97530.00
2023-05-12T23:10:00.028Z,97543.16
2023-05-12T23:12:27.575Z,97543.56
2023-05-12T23:14:55.137Z,97529.59
2023-05-12T23:17:22.748Z,97543.53
2023-05-12T23:19:52.477Z,97537.34
2023-05-12T23:22:20.032Z,97537.75
2023-05-12T23:24:47.693Z,97535.41
2023-05-12T23:27:15.207Z,97535.78
2023-05-12T23:29:42.697Z,97531.16
2023-05-12T23:32:10.517Z,97532.31
2023-05-12T23:34:40.570Z,97532.69
2023-05-12T23:37:08.128Z,97526.84
2023-05-12T23:39:36.036Z,97531.50
2023-05-12T23:42:04.161Z,97529.97
2023-05-12T23:44:31.721Z,97519.47
2023-05-12T23:46:59.346Z,97522.19
2023-05-12T23:49:27.638Z,97517.53
2023-05-12T23:51:55.534Z,97519.09
2023-05-12T23:54:23.126Z,97515.56
2023-05-12T23:56:50.769Z,97517.13
2023-05-12T23:59:18.352Z,97524.88
